createdAt,value
2023-03-20T00:02:05.729Z,113.23077
2023-03-20T00:07:07.188Z,112.76712
2023-03-20T00:12:08.762Z,115.11111
2023-03-20T00:17:10.292Z,116.06704
2023-03-20T00:22:11.736Z,117.03371
2023-03-20T00:27:13.254Z,116.54902
2023-03-20T00:32:14.755Z,120
2023-03-20T00:37:16.219Z,119
2023-03-20T00:42:17.691Z,119
2023-03-20T00:47:19.388Z,119
2023-03-20T00:52:20.875Z,114.16575
2023-03-20T00:57:22.388Z,109.5914
2023-03-20T01:02:24.117Z,106.10526
2023-03-20T01:07:25.636Z,105.25654
2023-03-20T01:12:27.354Z,105.25654
2023-03-20T01:17:29.121Z,105.25654
2023-03-20T01:22:30.673Z,104.83551
2023-03-20T01:27:32.288Z,103.17313
2023-03-20T01:32:34.004Z,101.54476
2023-03-20T01:37:35.529Z,100.34518
2023-03-20T01:42:36.984Z,100.34518
2023-03-20T01:47:38.805Z,103.17313
2023-03-20T01:52:40.400Z,101.14286
2023-03-20T01:57:41.923Z,99.16373
2023-03-20T02:02:43.454Z,97.61596
2023-03-20T02:07:44.973Z,97.61596
2023-03-20T02:12:46.452Z,97.61596
2023-03-20T02:17:48.180Z,99.55556
2023-03-20T02:22:49.674Z,100.34518
2023-03-20T02:27:51.394Z,98.77387
2023-03-20T02:32:53.011Z,99.16373
2023-03-20T02:37:54.667Z,99.16373
2023-03-20T02:42:56.234Z,101.14286
2023-03-20T02:47:57.816Z,103.17313
2023-03-20T02:52:59.316Z,104
2023-03-20T02:58:00.901Z,105.67979
2023-03-20T03:03:02.551Z,106.10526
2023-03-20T03:08:04.221Z,106.53298
2023-03-20T03:13:05.748Z,105.25654
2023-03-20T03:18:07.313Z,106.10526
2023-03-20T03:23:08.839Z,108.26667
2023-03-20T03:28:10.321Z,107.39523
2023-03-20T03:33:12.028Z,107.39523
2023-03-20T03:38:13.637Z,110.48649
2023-03-20T03:43:15.218Z,110.93767
2023-03-20T03:48:16.917Z,115.58774
2023-03-20T03:53:18.469Z,114.16575
2023-03-20T03:58:19.991Z,116.06704
2023-03-20T04:03:21.811Z,114.63712
2023-03-20T04:08:23.305Z,114.63712
2023-03-20T04:13:24.862Z,113.69697
2023-03-20T04:18:26.469Z,113.69697
2023-03-20T04:23:28.061Z,110.03774
2023-03-20T04:28:29.606Z,108.70588
2023-03-20T04:33:31.149Z,105.67979
2023-03-20T04:38:32.615Z,105.67979
2023-03-20T04:43:34.820Z,103.17313
2023-03-20T04:48:36.351Z,104
2023-03-20T04:53:37.784Z,115.58774
2023-03-20T04:58:39.217Z,115.11111
2023-03-20T05:03:40.840Z,125.17647
2023-03-20T05:08:42.254Z,133.53846
2023-03-20T05:13:43.704Z,130.66667
2023-03-20T05:18:45.204Z,137.10345
2023-03-20T05:23:46.754Z,139.55556
2023-03-20T05:28:48.319Z,127.33333
2023-03-20T05:33:49.864Z,135.90031
2023-03-20T05:38:51.338Z,128.98498
2023-03-20T05:43:52.767Z,128.43114
2023-03-20T05:48:54.277Z,136.5
2023-03-20T05:53:55.716Z,148.65116
2023-03-20T05:58:57.264Z,146.63158
2023-03-20T06:03:59.085Z,155.68385
2023-03-20T06:09:00.711Z,157.88889
2023-03-20T06:14:02.566Z,155.68385
2023-03-20T06:19:03.974Z,156.41379
2023-03-20T06:24:05.471Z,166.38267
2023-03-20T06:29:06.978Z,137.10345
2023-03-20T06:34:08.580Z,177.33333
2023-03-20T06:39:10.130Z,164
2023-03-20T06:44:11.700Z,182.75969
2023-03-20T06:49:13.285Z,203.91561
2023-03-20T06:54:14.960Z,200.66667
2023-03-20T06:59:16.402Z,183.68872
2023-03-20T07:04:17.876Z,193.39271
2023-03-20T07:09:20.483Z,198.54545
2023-03-20T07:14:22.007Z,222.73303
2023-03-20T07:19:23.604Z,207.24786
2023-03-20T07:24:25.127Z,253.54774
2023-03-20T07:29:26.918Z,215.36564
2023-03-20T07:34:28.573Z,245.96078
2023-03-20T07:39:29.995Z,244.4878
2023-03-20T07:44:31.520Z,229.18519
2023-03-20T07:49:33.046Z,229.18519
2023-03-20T07:54:34.733Z,220.23318
2023-03-20T07:59:36.233Z,207.24786
2023-03-20T08:04:37.735Z,231.85047
2023-03-20T08:09:39.370Z,259.89744
2023-03-20T08:14:40.906Z,240.15385
2023-03-20T08:19:42.582Z,0
2023-03-20T08:24:44.067Z,269.92593
2023-03-20T08:29:45.834Z,275.1828
2023-03-20T08:34:47.332Z,247.44828
2023-03-20T08:39:48.824Z,255.11111
2023-03-20T08:44:50.548Z,0
2023-03-20T08:49:52.083Z,0
2023-03-20T08:54:53.498Z,0
2023-03-20T08:59:54.969Z,0
2023-03-20T09:04:56.743Z,0
2023-03-20T09:09:58.268Z,0
2023-03-20T09:15:00.076Z,0
2023-03-20T09:20:01.826Z,0
2023-03-20T09:25:03.256Z,0
2023-03-20T09:30:04.677Z,0
2023-03-20T09:35:06.168Z,0
2023-03-20T09:40:07.673Z,0
2023-03-20T09:45:09.383Z,0
2023-03-20T09:50:11.174Z,224
2023-03-20T09:55:12.754Z,248.9505
2023-03-20T10:00:14.861Z,0
2023-03-20T10:05:16.405Z,0
2023-03-20T10:10:17.933Z,0
2023-03-20T10:15:19.502Z,245.96078
2023-03-20T10:20:21.094Z,0
2023-03-20T10:25:22.936Z,259.89744
2023-03-20T10:30:24.478Z,0
2023-03-20T10:35:25.978Z,0
2023-03-20T10:40:27.491Z,0
2023-03-20T10:45:28.988Z,0
2023-03-20T10:50:30.512Z,0
2023-03-20T10:55:31.989Z,0
2023-03-20T11:00:33.593Z,0
2023-03-20T11:05:35.239Z,0
2023-03-20T11:10:37.088Z,0
2023-03-20T11:15:39.035Z,0
2023-03-20T11:20:40.551Z,0
2023-03-20T11:25:42.314Z,0
2023-03-20T11:31:01.408Z,0
2023-03-20T11:36:05.346Z,0
2023-03-20T11:41:06.839Z,0
2023-03-20T11:46:08.421Z,0
2023-03-20T11:51:09.913Z,0
2023-03-20T11:56:11.380Z,0
2023-03-20T12:01:12.893Z,0
2023-03-20T12:06:14.347Z,0
2023-03-20T12:11:17.249Z,0
2023-03-20T12:16:18.811Z,0
2023-03-20T12:21:20.364Z,0
2023-03-20T12:26:21.986Z,0
2023-03-20T12:31:23.645Z,0
2023-03-20T12:36:25.339Z,0
2023-03-20T12:41:26.989Z,0
2023-03-20T12:46:28.499Z,0
2023-03-20T12:51:30.047Z,0
2023-03-20T12:56:31.563Z,0
2023-03-20T13:01:33.046Z,0
2023-03-20T13:06:34.644Z,0
2023-03-20T13:11:36.164Z,0
2023-03-20T13:16:37.747Z,0
2023-03-20T13:21:39.525Z,0
2023-03-20T13:26:41.058Z,0
2023-03-20T13:31:43.142Z,0
2023-03-20T13:36:49.402Z,0
2023-03-20T13:41:50.861Z,0
2023-03-20T13:46:52.475Z,0
2023-03-20T13:51:54.043Z,0
2023-03-20T13:56:55.607Z,0
2023-03-20T14:01:57.137Z,0
2023-03-20T14:06:58.668Z,0
2023-03-20T14:12:00.173Z,0
2023-03-20T14:17:01.659Z,0
2023-03-20T14:22:03.161Z,0
2023-03-20T14:27:04.606Z,0
2023-03-20T14:32:06.179Z,0
2023-03-20T14:37:07.655Z,0
2023-03-20T14:42:09.290Z,0
2023-03-20T14:47:10.823Z,0
2023-03-20T14:52:12.590Z,0
2023-03-20T14:57:14.137Z,0
2023-03-20T15:02:15.634Z,0
2023-03-20T15:07:17.207Z,0
2023-03-20T15:12:18.678Z,0
2023-03-20T15:17:20.191Z,0
2023-03-20T15:22:21.687Z,0
2023-03-20T15:27:23.201Z,0
2023-03-20T15:32:24.759Z,0
2023-03-20T15:37:26.295Z,0
2023-03-20T15:42:27.907Z,0
2023-03-20T15:47:29.376Z,0
2023-03-20T15:52:30.902Z,0
2023-03-20T15:57:35.234Z,0
2023-03-20T16:02:37.091Z,0
2023-03-20T16:07:38.577Z,0
2023-03-20T16:12:40.045Z,0
2023-03-20T16:17:41.524Z,0
2023-03-20T16:22:42.990Z,250.46766
2023-03-20T16:27:44.514Z,253.54774
2023-03-20T16:32:46.001Z,0
2023-03-20T16:37:47.467Z,0
2023-03-20T16:42:49.019Z,0
2023-03-20T16:47:50.695Z,235.94313
2023-03-20T16:52:52.277Z,229.18519
2023-03-20T16:57:53.737Z,206.12766
2023-03-20T17:02:55.222Z,208.37768
2023-03-20T17:07:56.747Z,205.01695
2023-03-20T17:12:58.500Z,211.82609
2023-03-20T17:18:00.004Z,219
2023-03-20T17:23:03.843Z,210.66667
2023-03-20T17:28:06.541Z,205.01695
2023-03-20T17:33:08.103Z,196.45902
2023-03-20T17:38:09.587Z,197.49794
2023-03-20T17:43:11.059Z,197.49794
2023-03-20T17:48:12.594Z,198.54545
2023-03-20T17:53:14.052Z,194.4065
2023-03-20T17:58:15.520Z,192.3871
2023-03-20T18:03:16.999Z,189.41833
2023-03-20T18:08:18.447Z,188.44444
2023-03-20T18:13:19.986Z,180.01533
2023-03-20T18:18:23.723Z,176.45283
2023-03-20T18:23:25.531Z,171.30627
2023-03-20T18:28:27.038Z,161.66784
2023-03-20T18:33:28.449Z,170.47059
2023-03-20T18:38:29.884Z,168
2023-03-20T18:43:31.408Z,152.10811
2023-03-20T18:48:32.930Z,160.90141
2023-03-20T18:53:34.416Z,154.23891
2023-03-20T18:58:36.030Z,162.43972
2023-03-20T19:03:37.617Z,165.58273
2023-03-20T19:08:39.242Z,180.92308
2023-03-20T19:13:40.717Z,180.01533
2023-03-20T19:18:42.408Z,177.33333
2023-03-20T19:23:43.883Z,172.14815
2023-03-20T19:28:45.642Z,181.83784
2023-03-20T19:33:47.141Z,184.625
2023-03-20T19:38:48.676Z,178.22053
2023-03-20T19:43:53.603Z,185.56863
2023-03-20T19:48:57.784Z,189.41833
2023-03-20T19:53:59.460Z,183.68872
2023-03-20T19:59:00.949Z,183.68872
2023-03-20T20:04:02.507Z,182.75969
2023-03-20T20:09:04.053Z,192.3871
2023-03-20T20:14:08.698Z,184.625
2023-03-20T20:19:10.913Z,193.39271
2023-03-20T20:24:12.442Z,191.38956
2023-03-20T20:29:13.908Z,196.45902
2023-03-20T20:35:21.967Z,192.3871
2023-03-20T20:40:36.337Z,186.51969
2023-03-20T20:45:38.111Z,180.92308
2023-03-20T20:50:39.685Z,184.625
2023-03-20T20:55:41.701Z,181.83784
2023-03-20T21:00:51.178Z,190.4
2023-03-20T21:05:53.311Z,192.3871
2023-03-20T21:10:54.974Z,187.47826
2023-03-20T21:15:56.439Z,196.45902
2023-03-20T21:20:57.981Z,183.68872
2023-03-20T21:25:59.463Z,180.01533
2023-03-20T21:31:25.873Z,172.99628
2023-03-20T21:36:29.122Z,176.45283
2023-03-20T21:41:31.359Z,164
2023-03-20T21:47:20.068Z,170.47059
2023-03-20T21:53:24.709Z,158.63415
2023-03-20T21:59:24.078Z,157.88889
2023-03-20T22:05:34.843Z,156.41379
2023-03-20T22:11:38.563Z,154.23891
2023-03-20T22:17:45.679Z,152.81356
2023-03-20T22:23:29.297Z,149.33333
2023-03-20T22:29:44.082Z,147.30033
2023-03-20T22:35:47.147Z,148.65116
2023-03-20T22:46:45.705Z,141.4359
2023-03-20T22:52:07.814Z,140.17834
2023-03-20T22:57:16.649Z,140.80511
2023-03-20T23:02:18.137Z,139.55556
2023-03-20T23:07:19.652Z,140.17834
2023-03-20T23:12:21.212Z,135.30435
2023-03-20T23:17:23.732Z,131.80488
2023-03-20T23:22:25.219Z,132.95706
2023-03-20T23:27:26.628Z,127.8806
2023-03-20T23:32:28.142Z,126.78932
2023-03-20T23:37:29.778Z,128.43114
2023-03-20T23:42:31.413Z,126.78932
2023-03-20T23:47:44.041Z,125.71091
2023-03-20T23:52:55.900Z,121.52161
2023-03-20T23:58:02.677Z,121.01149
